createdAt,value
2022-08-11T00:00:36.501Z,0.00
2022-08-11T00:01:36.466Z,0.00
2022-08-11T00:02:36.537Z,0.00
2022-08-11T00:03:43.163Z,0.00
2022-08-11T00:04:36.389Z,0.00
2022-08-11T00:05:36.360Z,0.00
2022-08-11T00:06:36.332Z,0.00
2022-08-11T00:07:36.309Z,0.00
2022-08-11T00:08:36.279Z,0.00
2022-08-11T00:09:39.190Z,0.00
2022-08-11T00:10:36.227Z,0.00
2022-08-11T00:11:36.200Z,0.00
2022-08-11T00:12:36.349Z,0.00
2022-08-11T00:13:36.156Z,0.00
2022-08-11T00:14:37.876Z,0.00
2022-08-11T00:15:36.091Z,0.00
2022-08-11T00:16:36.058Z,0.00
2022-08-11T00:17:36.032Z,0.00
2022-08-11T00:18:36.007Z,0.00
2022-08-11T00:20:12.232Z,0.00
2022-08-11T00:20:35.950Z,0.00
2022-08-11T00:22:04.534Z,0.00
2022-08-11T00:22:35.895Z,0.00
2022-08-11T00:23:35.868Z,0.00
2022-08-11T00:24:52.067Z,0.00
2022-08-11T00:25:35.817Z,0.00
2022-08-11T00:26:35.786Z,0.00
2022-08-11T00:27:35.758Z,0.00
2022-08-11T00:28:35.729Z,0.00
2022-08-11T00:29:35.702Z,0.00
2022-08-11T00:30:35.669Z,0.00
2022-08-11T00:31:35.643Z,0.00
2022-08-11T00:32:35.685Z,0.00
2022-08-11T00:33:41.445Z,0.00
2022-08-11T00:34:35.571Z,0.00
2022-08-11T00:35:50.977Z,0.00
2022-08-11T00:36:35.510Z,0.00
2022-08-11T00:37:35.475Z,0.00
2022-08-11T00:38:35.448Z,0.00
2022-08-11T00:39:35.466Z,0.00
2022-08-11T00:40:35.399Z,0.00
2022-08-11T00:41:35.373Z,0.00
2022-08-11T00:42:35.341Z,0.00
2022-08-11T00:43:35.311Z,0.00
2022-08-11T00:44:35.298Z,0.00
2022-08-11T00:45:35.259Z,0.00
2022-08-11T00:46:35.224Z,0.00
2022-08-11T00:47:35.200Z,0.00
2022-08-11T00:48:35.170Z,0.00
2022-08-11T00:49:35.143Z,0.00
2022-08-11T00:50:35.110Z,0.00
2022-08-11T00:52:04.760Z,0.00
2022-08-11T00:52:35.057Z,0.00
2022-08-11T00:53:35.029Z,0.00
2022-08-11T00:54:35.000Z,0.00
2022-08-11T00:55:34.972Z,0.00
2022-08-11T00:56:34.945Z,0.00
2022-08-11T00:57:37.457Z,0.00
2022-08-11T00:58:34.965Z,0.00
2022-08-11T00:59:36.052Z,0.00
2022-08-11T01:00:34.946Z,0.00
2022-08-11T01:01:34.825Z,0.00
2022-08-11T01:02:34.777Z,0.00
2022-08-11T01:03:34.752Z,0.00
2022-08-11T01:04:34.721Z,0.00
2022-08-11T01:05:34.694Z,0.00
2022-08-11T01:06:34.661Z,0.00
2022-08-11T01:08:02.766Z,0.00
2022-08-11T01:08:34.635Z,0.00
2022-08-11T01:09:34.582Z,0.00
2022-08-11T01:10:34.559Z,0.00
2022-08-11T01:11:34.532Z,0.00
2022-08-11T01:12:34.493Z,0.00
2022-08-11T01:13:34.468Z,0.00
2022-08-11T01:14:34.799Z,0.00
2022-08-11T01:15:34.434Z,0.00
2022-08-11T01:16:34.382Z,0.00
2022-08-11T01:17:34.353Z,0.00
2022-08-11T01:18:34.321Z,0.00
2022-08-11T01:19:34.297Z,0.00
2022-08-11T01:20:47.290Z,0.00
2022-08-11T01:21:34.238Z,0.00
2022-08-11T01:22:34.208Z,0.00
2022-08-11T01:23:34.183Z,0.00
2022-08-11T01:24:34.159Z,0.00
2022-08-11T01:25:34.125Z,0.00
2022-08-11T01:26:34.092Z,0.00
2022-08-11T01:27:34.084Z,0.00
2022-08-11T01:28:34.036Z,0.00
2022-08-11T01:29:34.009Z,0.00
2022-08-11T01:30:33.980Z,0.00
2022-08-11T01:31:33.954Z,0.00
2022-08-11T01:32:33.922Z,0.00
2022-08-11T01:33:33.893Z,0.00
2022-08-11T01:34:33.864Z,0.00
2022-08-11T01:35:33.839Z,0.00
2022-08-11T01:36:33.810Z,0.00
2022-08-11T01:37:33.779Z,0.00
2022-08-11T01:38:33.754Z,0.00
2022-08-11T01:39:33.754Z,0.00
2022-08-11T01:40:33.692Z,0.00
2022-08-11T01:41:33.676Z,0.00
2022-08-11T01:42:33.638Z,0.00
2022-08-11T01:43:33.613Z,0.00
2022-08-11T01:44:33.581Z,0.00
2022-08-11T01:45:33.552Z,0.00
2022-08-11T01:46:33.521Z,0.00
2022-08-11T01:47:33.495Z,0.00
2022-08-11T01:48:33.469Z,0.00
2022-08-11T01:50:08.717Z,0.00
2022-08-11T01:50:33.408Z,0.00
2022-08-11T01:51:33.382Z,0.00
2022-08-11T01:52:34.701Z,0.00
2022-08-11T01:53:33.329Z,0.00
2022-08-11T01:54:33.290Z,0.00
2022-08-11T01:55:33.264Z,0.00
2022-08-11T01:56:33.232Z,0.00
2022-08-11T01:57:33.204Z,0.00
2022-08-11T01:58:40.778Z,0.00
2022-08-11T01:59:33.152Z,0.00
2022-08-11T02:00:33.202Z,0.00
2022-08-11T02:01:33.091Z,0.00
2022-08-11T02:02:33.129Z,0.00
2022-08-11T02:03:33.033Z,0.00
2022-08-11T02:04:33.008Z,0.00
2022-08-11T02:05:32.974Z,0.00
2022-08-11T02:06:32.946Z,0.00
2022-08-11T02:07:32.934Z,0.00
2022-08-11T02:08:33.702Z,0.00
2022-08-11T02:09:32.857Z,0.00
2022-08-11T02:10:35.349Z,0.00
2022-08-11T02:11:35.703Z,0.00
2022-08-11T02:12:32.767Z,0.00
2022-08-11T02:13:35.671Z,0.00
2022-08-11T02:14:32.712Z,0.00
2022-08-11T02:15:32.685Z,0.00
2022-08-11T02:16:32.651Z,0.00
2022-08-11T02:17:32.622Z,0.00
2022-08-11T02:18:32.593Z,0.00
2022-08-11T02:19:32.565Z,0.00
2022-08-11T02:20:32.532Z,0.00
2022-08-11T02:21:32.503Z,0.00
2022-08-11T02:22:32.536Z,0.00
2022-08-11T02:24:07.166Z,0.00
2022-08-11T02:24:32.421Z,0.00
2022-08-11T02:25:32.404Z,0.00
2022-08-11T02:26:32.375Z,0.00
2022-08-11T02:27:32.342Z,0.00
2022-08-11T02:28:34.732Z,0.00
2022-08-11T02:29:32.274Z,0.00
2022-08-11T02:30:32.247Z,0.00
2022-08-11T02:32:25.463Z,0.00
2022-08-11T02:32:32.187Z,0.00
2022-08-11T02:33:32.154Z,0.00
2022-08-11T02:34:32.125Z,0.00
2022-08-11T02:35:32.103Z,0.00
2022-08-11T02:36:32.067Z,0.00
2022-08-11T02:37:32.038Z,0.00
2022-08-11T02:38:32.009Z,0.00
2022-08-11T02:39:32.049Z,0.00
2022-08-11T02:40:31.948Z,0.00
2022-08-11T02:41:31.923Z,0.00
2022-08-11T02:42:35.576Z,0.00
2022-08-11T02:43:31.861Z,0.00
2022-08-11T02:44:31.832Z,0.00
2022-08-11T02:45:31.803Z,0.00
2022-08-11T02:46:31.777Z,0.00
2022-08-11T02:47:31.743Z,0.00
2022-08-11T02:48:31.710Z,0.00
2022-08-11T02:49:31.683Z,0.00
2022-08-11T02:50:31.653Z,0.00
2022-08-11T02:51:31.625Z,0.00
2022-08-11T02:52:31.594Z,0.00
2022-08-11T02:53:31.566Z,0.00
2022-08-11T02:54:31.544Z,0.00
2022-08-11T02:55:55.568Z,0.00
2022-08-11T02:56:31.476Z,0.00
2022-08-11T02:57:31.446Z,0.00
2022-08-11T02:58:31.417Z,0.00
2022-08-11T02:59:31.387Z,0.00
2022-08-11T03:00:31.359Z,0.00
2022-08-11T03:01:31.361Z,0.00
2022-08-11T03:02:31.298Z,0.00
2022-08-11T03:03:31.285Z,0.00
2022-08-11T03:04:37.396Z,0.00
2022-08-11T03:05:31.215Z,0.00
2022-08-11T03:06:31.178Z,0.00
2022-08-11T03:07:31.153Z,0.00
2022-08-11T03:08:31.123Z,0.00
2022-08-11T03:09:31.093Z,0.00
2022-08-11T03:10:31.061Z,0.00
2022-08-11T03:11:31.034Z,0.00
2022-08-11T03:12:31.002Z,0.00
2022-08-11T03:13:30.973Z,0.00
2022-08-11T03:14:30.943Z,0.00
2022-08-11T03:15:30.915Z,0.00
2022-08-11T03:16:30.884Z,0.00
2022-08-11T03:17:30.851Z,0.00
2022-08-11T03:18:30.819Z,0.00
2022-08-11T03:19:30.791Z,0.00
2022-08-11T03:20:38.082Z,0.00
2022-08-11T03:22:01.729Z,0.00
2022-08-11T03:22:30.702Z,0.00
2022-08-11T03:23:30.676Z,0.00
2022-08-11T03:24:30.643Z,0.00
2022-08-11T03:25:30.623Z,0.00
2022-08-11T03:26:30.584Z,0.00
2022-08-11T03:27:30.562Z,0.00
2022-08-11T03:28:30.524Z,0.00
2022-08-11T03:29:30.498Z,0.00
2022-08-11T03:30:30.463Z,0.00
2022-08-11T03:31:30.439Z,0.00
2022-08-11T03:32:30.405Z,0.00
2022-08-11T03:33:30.372Z,0.00
2022-08-11T03:34:30.341Z,0.00
2022-08-11T03:35:30.312Z,0.00
2022-08-11T03:36:30.304Z,0.00
2022-08-11T03:37:30.253Z,0.00
2022-08-11T03:38:30.452Z,0.00
2022-08-11T03:39:30.239Z,0.00
2022-08-11T03:40:30.164Z,0.00
2022-08-11T03:42:03.715Z,0.00
2022-08-11T03:42:30.103Z,0.00
2022-08-11T03:43:30.070Z,0.00
2022-08-11T03:44:30.047Z,0.00
2022-08-11T03:45:30.013Z,0.00
2022-08-11T03:46:29.993Z,0.00
2022-08-11T03:47:29.960Z,0.00
2022-08-11T03:48:29.924Z,0.00
2022-08-11T03:49:29.893Z,4.00
2022-08-11T03:50:29.865Z,4.00
2022-08-11T03:51:44.724Z,0.00
2022-08-11T03:52:29.803Z,0.00
2022-08-11T03:53:29.773Z,4.00
2022-08-11T03:54:29.743Z,4.00
2022-08-11T03:55:29.713Z,4.00
2022-08-11T03:56:29.682Z,4.00
2022-08-11T03:57:29.651Z,4.00
2022-08-11T03:58:29.619Z,4.00
2022-08-11T03:59:29.592Z,4.00
2022-08-11T04:00:29.566Z,8.00
2022-08-11T04:01:29.592Z,8.00
2022-08-11T04:02:29.501Z,8.00
2022-08-11T04:03:31.448Z,12.00
2022-08-11T04:04:29.439Z,12.00
2022-08-11T04:05:29.411Z,16.00
2022-08-11T04:06:29.377Z,16.00
2022-08-11T04:07:29.348Z,20.00
2022-08-11T04:08:34.258Z,20.00
2022-08-11T04:09:29.289Z,24.00
2022-08-11T04:10:29.261Z,24.00
2022-08-11T04:11:29.228Z,28.00
2022-08-11T04:12:36.712Z,32.00
2022-08-11T04:13:29.167Z,32.00
2022-08-11T04:14:29.137Z,36.00
2022-08-11T04:15:29.112Z,40.00
2022-08-11T04:16:29.077Z,48.00
2022-08-11T04:17:29.239Z,48.00
2022-08-11T04:18:29.472Z,52.00
2022-08-11T04:19:28.983Z,56.00
2022-08-11T04:20:28.951Z,60.00
2022-08-11T04:21:28.922Z,64.00
2022-08-11T04:22:28.980Z,68.00
2022-08-11T04:24:36.299Z,76.00
2022-08-11T04:24:37.665Z,80.00
2022-08-11T04:25:28.805Z,84.00
2022-08-11T04:26:28.777Z,88.00
2022-08-11T04:27:36.911Z,92.00
2022-08-11T04:28:31.323Z,100.00
2022-08-11T04:29:36.432Z,104.00
2022-08-11T04:30:28.651Z,108.00
2022-08-11T04:31:51.247Z,112.00
2022-08-11T04:32:28.652Z,120.00
2022-08-11T04:33:28.562Z,128.00
2022-08-11T04:34:28.531Z,132.00
2022-08-11T04:35:28.502Z,136.00
2022-08-11T04:36:28.471Z,140.00
2022-08-11T04:37:28.436Z,144.00
2022-08-11T04:38:28.404Z,156.00
2022-08-11T04:39:28.422Z,160.00
2022-08-11T04:40:28.347Z,164.00
2022-08-11T04:41:28.312Z,172.00
2022-08-11T04:42:31.488Z,176.00
2022-08-11T04:43:28.256Z,180.00
2022-08-11T04:44:28.222Z,188.00
2022-08-11T04:45:28.197Z,192.00
2022-08-11T04:46:28.163Z,196.00
2022-08-11T04:47:28.133Z,204.00
2022-08-11T04:48:28.102Z,208.00
2022-08-11T04:49:33.825Z,212.00
2022-08-11T04:50:28.040Z,220.00
2022-08-11T04:51:28.012Z,220.00
2022-08-11T04:52:37.582Z,228.00
2022-08-11T04:53:28.812Z,232.00
2022-08-11T04:54:28.768Z,240.00
2022-08-11T04:55:27.895Z,240.00
2022-08-11T04:56:27.867Z,248.00
2022-08-11T04:57:27.826Z,252.00
2022-08-11T04:58:31.350Z,256.00
2022-08-11T04:59:27.766Z,260.00
2022-08-11T05:00:27.737Z,268.00
2022-08-11T05:01:27.756Z,268.00
2022-08-11T05:02:27.676Z,276.00
2022-08-11T05:03:27.649Z,280.00
2022-08-11T05:04:27.620Z,284.00
2022-08-11T05:05:27.588Z,288.00
2022-08-11T05:06:27.567Z,296.00
2022-08-11T05:07:27.525Z,296.00
2022-08-11T05:08:27.493Z,300.00
2022-08-11T05:09:27.463Z,304.00
2022-08-11T05:10:27.435Z,308.00
2022-08-11T05:11:27.406Z,312.00
2022-08-11T05:12:27.374Z,316.00
2022-08-11T05:13:27.345Z,324.00
2022-08-11T05:14:27.311Z,324.00
2022-08-11T05:15:27.284Z,328.00
2022-08-11T05:16:27.251Z,332.00
2022-08-11T05:17:27.220Z,340.00
2022-08-11T05:18:27.190Z,340.00
2022-08-11T05:19:27.158Z,344.00
2022-08-11T05:20:27.132Z,352.00
2022-08-11T05:21:27.096Z,352.00
2022-08-11T05:22:27.067Z,356.00
2022-08-11T05:23:27.041Z,356.00
2022-08-11T05:24:27.011Z,364.00
2022-08-11T05:26:45.072Z,368.00
2022-08-11T05:26:46.182Z,372.00
2022-08-11T05:27:26.918Z,372.00
2022-08-11T05:28:26.887Z,376.00
2022-08-11T05:29:26.855Z,376.00
2022-08-11T05:30:26.823Z,380.00
2022-08-11T05:31:26.796Z,384.00
2022-08-11T05:32:26.763Z,388.00
2022-08-11T05:33:26.735Z,392.00
2022-08-11T05:34:26.702Z,392.00
2022-08-11T05:36:00.552Z,396.00
2022-08-11T05:36:26.640Z,396.00
2022-08-11T05:37:27.456Z,400.00
2022-08-11T05:38:26.578Z,400.00
2022-08-11T05:39:36.427Z,404.00
2022-08-11T05:40:26.519Z,408.00
2022-08-11T05:41:26.489Z,412.00
2022-08-11T05:42:29.866Z,412.00
2022-08-11T05:43:26.430Z,412.00
2022-08-11T05:44:26.399Z,416.00
2022-08-11T05:45:26.373Z,420.00
2022-08-11T05:46:26.341Z,420.00
2022-08-11T05:47:26.308Z,420.00
2022-08-11T05:48:26.280Z,424.00
2022-08-11T05:49:26.246Z,428.00
2022-08-11T05:50:31.167Z,432.00
2022-08-11T05:51:30.314Z,432.00
2022-08-11T05:52:31.921Z,436.00
2022-08-11T05:53:26.129Z,436.00
2022-08-11T05:54:28.205Z,436.00
2022-08-11T05:55:26.070Z,440.00
2022-08-11T05:56:26.037Z,444.00
2022-08-11T05:57:50.104Z,448.00
2022-08-11T05:58:25.977Z,452.00
2022-08-11T05:59:25.941Z,460.00
2022-08-11T06:00:25.915Z,468.00
2022-08-11T06:01:25.933Z,468.00
2022-08-11T06:02:25.865Z,464.00
2022-08-11T06:03:25.841Z,456.00
2022-08-11T06:04:25.794Z,456.00
2022-08-11T06:05:25.762Z,456.00
2022-08-11T06:06:25.737Z,456.00
2022-08-11T06:07:25.702Z,464.00
2022-08-11T06:08:25.670Z,464.00
2022-08-11T06:09:25.643Z,464.00
2022-08-11T06:10:25.649Z,464.00
2022-08-11T06:11:43.997Z,468.00
2022-08-11T06:12:25.557Z,468.00
2022-08-11T06:13:25.522Z,472.00
2022-08-11T06:14:25.488Z,472.00
2022-08-11T06:15:25.464Z,472.00
2022-08-11T06:16:25.434Z,476.00
2022-08-11T06:17:25.402Z,476.00
2022-08-11T06:18:25.378Z,480.00
2022-08-11T06:19:25.346Z,480.00
2022-08-11T06:20:25.356Z,480.00
2022-08-11T06:21:25.286Z,484.00
2022-08-11T06:22:25.257Z,484.00
2022-08-11T06:23:25.230Z,488.00
2022-08-11T06:24:25.197Z,488.00
2022-08-11T06:25:25.163Z,488.00
2022-08-11T06:26:25.133Z,492.00
2022-08-11T06:27:25.105Z,492.00
2022-08-11T06:28:25.075Z,492.00
2022-08-11T06:29:37.974Z,492.00
2022-08-11T06:30:25.015Z,496.00
2022-08-11T06:31:24.982Z,500.00
2022-08-11T06:32:24.952Z,500.00
2022-08-11T06:33:24.925Z,500.00
2022-08-11T06:34:27.420Z,504.00
2022-08-11T06:35:24.863Z,504.00
2022-08-11T06:36:24.832Z,508.00
2022-08-11T06:37:24.817Z,504.00
2022-08-11T06:38:24.810Z,504.00
2022-08-11T06:39:24.805Z,508.00
2022-08-11T06:40:24.733Z,508.00
2022-08-11T06:41:24.685Z,508.00
2022-08-11T06:42:24.726Z,512.00
2022-08-11T06:43:24.629Z,512.00
2022-08-11T06:44:24.595Z,512.00
2022-08-11T06:45:24.568Z,516.00
2022-08-11T06:46:28.445Z,516.00
2022-08-11T06:47:24.508Z,516.00
2022-08-11T06:48:24.483Z,520.00
2022-08-11T06:49:24.449Z,520.00
2022-08-11T06:50:24.423Z,520.00
2022-08-11T06:51:24.389Z,520.00
2022-08-11T06:52:35.065Z,524.00
2022-08-11T06:53:24.331Z,524.00
2022-08-11T06:54:24.300Z,524.00
2022-08-11T06:55:57.282Z,524.00
2022-08-11T06:56:24.246Z,528.00
2022-08-11T06:57:31.518Z,528.00
2022-08-11T06:58:24.184Z,532.00
2022-08-11T06:59:24.157Z,532.00
2022-08-11T07:00:24.125Z,532.00
2022-08-11T07:01:24.153Z,532.00
2022-08-11T07:02:27.951Z,532.00
2022-08-11T07:03:24.068Z,532.00
2022-08-11T07:04:24.009Z,536.00
2022-08-11T07:05:23.989Z,536.00
2022-08-11T07:06:23.955Z,536.00
2022-08-11T07:07:23.926Z,536.00
2022-08-11T07:08:33.538Z,540.00
2022-08-11T07:09:23.869Z,540.00
2022-08-11T07:10:23.850Z,540.00
2022-08-11T07:11:23.806Z,540.00
2022-08-11T07:12:23.781Z,544.00
2022-08-11T07:13:44.607Z,544.00
2022-08-11T07:14:23.726Z,544.00
2022-08-11T07:15:23.694Z,544.00
2022-08-11T07:16:25.796Z,548.00
2022-08-11T07:17:23.639Z,548.00
2022-08-11T07:18:23.603Z,548.00
2022-08-11T07:19:23.577Z,552.00
2022-08-11T07:20:23.598Z,552.00
2022-08-11T07:22:01.444Z,556.00
2022-08-11T07:22:23.488Z,556.00
2022-08-11T07:23:23.464Z,556.00
2022-08-11T07:24:34.533Z,560.00
2022-08-11T07:25:23.407Z,560.00
2022-08-11T07:26:23.374Z,560.00
2022-08-11T07:27:23.350Z,564.00
2022-08-11T07:28:23.322Z,564.00
2022-08-11T07:29:23.294Z,568.00
2022-08-11T07:30:23.329Z,564.00
2022-08-11T07:31:23.239Z,568.00
2022-08-11T07:32:23.222Z,568.00
2022-08-11T07:34:07.093Z,572.00
2022-08-11T07:34:23.146Z,572.00
2022-08-11T07:35:23.130Z,576.00
2022-08-11T07:36:23.090Z,576.00
2022-08-11T07:37:23.067Z,576.00
2022-08-11T07:38:25.270Z,580.00
2022-08-11T07:39:23.104Z,580.00
2022-08-11T07:40:23.082Z,584.00
2022-08-11T07:41:22.951Z,584.00
2022-08-11T07:42:22.927Z,584.00
2022-08-11T07:43:22.901Z,588.00
2022-08-11T07:44:22.868Z,588.00
2022-08-11T07:45:22.846Z,588.00
2022-08-11T07:46:22.813Z,592.00
2022-08-11T07:47:22.787Z,592.00
2022-08-11T07:48:22.757Z,592.00
2022-08-11T07:49:22.727Z,596.00
2022-08-11T07:50:22.725Z,596.00
2022-08-11T07:51:22.673Z,596.00
2022-08-11T07:52:22.650Z,596.00
2022-08-11T07:53:22.616Z,604.00
2022-08-11T07:54:22.605Z,600.00
2022-08-11T07:55:50.187Z,604.00
2022-08-11T07:56:39.535Z,604.00
2022-08-11T07:58:00.185Z,608.00
2022-08-11T07:58:22.475Z,608.00
2022-08-11T07:59:22.448Z,612.00
2022-08-11T08:00:22.446Z,608.00
2022-08-11T08:01:22.901Z,616.00
2022-08-11T08:02:22.371Z,616.00
2022-08-11T08:03:22.343Z,616.00
2022-08-11T08:04:22.321Z,620.00
2022-08-11T08:05:22.288Z,620.00
2022-08-11T08:06:22.295Z,620.00
2022-08-11T08:07:22.232Z,620.00
2022-08-11T08:08:22.208Z,624.00
2022-08-11T08:09:22.171Z,624.00
2022-08-11T08:10:22.169Z,628.00
2022-08-11T08:11:27.582Z,624.00
2022-08-11T08:12:22.094Z,628.00
2022-08-11T08:13:22.073Z,632.00
2022-08-11T08:14:22.042Z,636.00
2022-08-11T08:15:22.014Z,636.00
2022-08-11T08:16:21.991Z,636.00
2022-08-11T08:17:21.955Z,640.00
2022-08-11T08:18:26.537Z,640.00
2022-08-11T08:19:22.125Z,640.00
2022-08-11T08:20:21.936Z,640.00
2022-08-11T08:21:21.853Z,644.00
2022-08-11T08:22:39.101Z,644.00
2022-08-11T08:23:21.791Z,644.00
2022-08-11T08:24:21.763Z,644.00
2022-08-11T08:25:21.740Z,652.00
2022-08-11T08:26:21.715Z,648.00
2022-08-11T08:27:21.685Z,652.00
2022-08-11T08:28:21.659Z,656.00
2022-08-11T08:29:21.632Z,656.00
2022-08-11T08:30:21.636Z,656.00
2022-08-11T08:31:21.578Z,660.00
2022-08-11T08:32:21.551Z,660.00
2022-08-11T08:33:21.524Z,664.00
2022-08-11T08:34:21.498Z,664.00
2022-08-11T08:35:21.465Z,668.00
2022-08-11T08:36:21.444Z,668.00
2022-08-11T08:37:46.730Z,672.00
2022-08-11T08:38:21.390Z,672.00
2022-08-11T08:39:21.411Z,676.00
2022-08-11T08:40:21.489Z,676.00
2022-08-11T08:41:21.388Z,680.00
2022-08-11T08:42:21.284Z,684.00
2022-08-11T08:43:21.255Z,684.00
2022-08-11T08:44:37.934Z,688.00
2022-08-11T08:45:21.200Z,688.00
2022-08-11T08:46:21.174Z,692.00
2022-08-11T08:47:41.761Z,692.00
2022-08-11T08:48:21.124Z,696.00
2022-08-11T08:49:21.099Z,696.00
2022-08-11T08:50:21.068Z,700.00
2022-08-11T08:51:21.958Z,700.00
2022-08-11T08:52:29.614Z,704.00
2022-08-11T08:53:20.990Z,688.00
2022-08-11T08:54:20.965Z,688.00
2022-08-11T08:55:20.950Z,692.00
2022-08-11T08:56:20.910Z,692.00
2022-08-11T08:57:20.885Z,696.00
2022-08-11T08:58:20.856Z,696.00
2022-08-11T08:59:20.835Z,700.00
2022-08-11T09:00:23.452Z,700.00
2022-08-11T09:01:20.877Z,708.00
2022-08-11T09:02:34.727Z,708.00
2022-08-11T09:03:40.978Z,712.00
2022-08-11T09:04:21.101Z,712.00
2022-08-11T09:05:20.679Z,712.00
2022-08-11T09:06:20.653Z,716.00
2022-08-11T09:07:20.637Z,720.00
2022-08-11T09:08:20.595Z,720.00
2022-08-11T09:09:20.576Z,724.00
2022-08-11T09:10:20.639Z,724.00
2022-08-11T09:11:20.517Z,728.00
2022-08-11T09:12:36.228Z,732.00
2022-08-11T09:13:20.472Z,736.00
2022-08-11T09:14:20.441Z,732.00
2022-08-11T09:15:20.415Z,740.00
2022-08-11T09:16:20.402Z,740.00
2022-08-11T09:17:20.364Z,744.00
2022-08-11T09:18:20.337Z,744.00
2022-08-11T09:19:20.315Z,748.00
2022-08-11T09:20:20.317Z,752.00
2022-08-11T09:21:39.287Z,752.00
2022-08-11T09:22:20.242Z,756.00
2022-08-11T09:24:26.132Z,764.00
2022-08-11T09:25:20.160Z,764.00
2022-08-11T09:26:20.134Z,768.00
2022-08-11T09:27:20.103Z,772.00
2022-08-11T09:28:20.076Z,776.00
2022-08-11T09:29:20.056Z,772.00
2022-08-11T09:30:20.053Z,776.00
2022-08-11T09:31:21.958Z,784.00
2022-08-11T09:32:19.976Z,784.00
2022-08-11T09:33:19.954Z,788.00
2022-08-11T09:34:19.928Z,792.00
2022-08-11T09:35:19.911Z,800.00
2022-08-11T09:36:19.876Z,800.00
2022-08-11T09:37:28.514Z,800.00
2022-08-11T09:38:19.827Z,808.00
2022-08-11T09:39:19.902Z,812.00
2022-08-11T09:40:19.801Z,816.00
2022-08-11T09:41:19.757Z,824.00
2022-08-11T09:42:23.169Z,820.00
2022-08-11T09:43:19.697Z,824.00
2022-08-11T09:44:19.675Z,824.00
2022-08-11T09:45:19.689Z,832.00
2022-08-11T09:46:19.620Z,836.00
2022-08-11T09:47:19.602Z,836.00
2022-08-11T09:48:19.571Z,840.00
2022-08-11T09:49:19.550Z,844.00
2022-08-11T09:50:19.594Z,848.00
2022-08-11T09:51:19.503Z,848.00
2022-08-11T09:52:19.470Z,852.00
2022-08-11T09:53:35.954Z,852.00
2022-08-11T09:54:19.429Z,860.00
2022-08-11T09:55:19.397Z,864.00
2022-08-11T09:56:19.369Z,868.00
2022-08-11T09:57:19.347Z,876.00
2022-08-11T09:58:42.872Z,880.00
2022-08-11T09:59:19.298Z,880.00
2022-08-11T10:00:19.305Z,888.00
2022-08-11T10:01:19.354Z,896.00
2022-08-11T10:02:19.222Z,900.00
2022-08-11T10:03:19.197Z,904.00
2022-08-11T10:04:19.174Z,912.00
2022-08-11T10:05:19.149Z,912.00
2022-08-11T10:06:19.125Z,920.00
2022-08-11T10:07:19.105Z,924.00
2022-08-11T10:08:19.078Z,924.00
2022-08-11T10:09:19.079Z,936.00
2022-08-11T10:10:19.027Z,940.00
2022-08-11T10:11:19.002Z,944.00
2022-08-11T10:12:18.978Z,948.00
2022-08-11T10:14:30.375Z,948.00
2022-08-11T10:14:34.017Z,952.00
2022-08-11T10:15:18.905Z,960.00
2022-08-11T10:16:18.877Z,956.00
2022-08-11T10:17:18.860Z,976.00
2022-08-11T10:18:18.825Z,980.00
2022-08-11T10:19:18.804Z,984.00
2022-08-11T10:20:22.641Z,992.00
2022-08-11T10:21:18.751Z,996.00
2022-08-11T10:22:18.729Z,1004.00
2022-08-11T10:23:18.706Z,1008.00
2022-08-11T10:24:18.680Z,1008.00
2022-08-11T10:25:19.846Z,1016.00
2022-08-11T10:26:18.633Z,1028.00
2022-08-11T10:27:18.607Z,1040.00
2022-08-11T10:28:33.616Z,1052.00
2022-08-11T10:29:18.907Z,1048.00
2022-08-11T10:30:18.535Z,1060.00
2022-08-11T10:31:18.515Z,1068.00
2022-08-11T10:32:18.485Z,1076.00
2022-08-11T10:33:18.965Z,1092.00
2022-08-11T10:34:18.432Z,1128.00
2022-08-11T10:35:18.433Z,1224.00
2022-08-11T10:36:18.389Z,1276.00
2022-08-11T10:37:18.393Z,1280.00
2022-08-11T10:38:18.452Z,1280.00
2022-08-11T10:39:18.419Z,1280.00
2022-08-11T10:40:18.330Z,1280.00
2022-08-11T10:41:18.264Z,1280.00
2022-08-11T10:42:35.072Z,1288.00
2022-08-11T10:44:01.229Z,1292.00
2022-08-11T10:44:18.193Z,1308.00
2022-08-11T10:45:18.171Z,1316.00
2022-08-11T10:46:18.150Z,1324.00
2022-08-11T10:47:18.124Z,1324.00
2022-08-11T10:48:18.101Z,1332.00
2022-08-11T10:49:18.081Z,1364.00
2022-08-11T10:50:18.056Z,1340.00
2022-08-11T10:51:50.455Z,1352.00
2022-08-11T10:52:18.016Z,1344.00
2022-08-11T10:53:17.991Z,1364.00
2022-08-11T10:54:17.965Z,1352.00
2022-08-11T10:55:17.948Z,1340.00
2022-08-11T10:56:17.926Z,1364.00
2022-08-11T10:57:17.895Z,1356.00
2022-08-11T10:58:17.878Z,1368.00
2022-08-11T10:59:17.860Z,1372.00
2022-08-11T11:00:17.834Z,1476.00
2022-08-11T11:01:17.883Z,1644.00
2022-08-11T11:02:17.787Z,1792.00
2022-08-11T11:03:22.817Z,1924.00
2022-08-11T11:04:17.743Z,2052.00
2022-08-11T11:05:17.720Z,2180.00
2022-08-11T11:06:28.183Z,2320.00
2022-08-11T11:07:17.764Z,2456.00
2022-08-11T11:08:17.658Z,2596.00
2022-08-11T11:09:17.635Z,2724.00
2022-08-11T11:10:17.616Z,2844.00
2022-08-11T11:11:18.331Z,2924.00
2022-08-11T11:12:17.571Z,3000.00
2022-08-11T11:13:17.549Z,3072.00
2022-08-11T11:14:17.530Z,3148.00
2022-08-11T11:15:18.104Z,3248.00
2022-08-11T11:16:17.489Z,3340.00
2022-08-11T11:17:17.472Z,3448.00
2022-08-11T11:18:17.462Z,3536.00
2022-08-11T11:19:17.440Z,3664.00
2022-08-11T11:20:34.718Z,3808.00
2022-08-11T11:21:17.392Z,3896.00
2022-08-11T11:22:17.370Z,4032.00
2022-08-11T11:23:17.352Z,4160.00
2022-08-11T11:24:17.327Z,4288.00
2022-08-11T11:25:17.315Z,4420.00
2022-08-11T11:26:17.289Z,4552.00
2022-08-11T11:27:17.270Z,4684.00
2022-08-11T11:28:17.253Z,4796.00
2022-08-11T11:29:17.235Z,4900.00
2022-08-11T11:30:17.209Z,5016.00
2022-08-11T11:31:17.193Z,5184.00
2022-08-11T11:32:17.179Z,5244.00
2022-08-11T11:33:17.154Z,5408.00
2022-08-11T11:34:17.135Z,5600.00
2022-08-11T11:35:17.119Z,5724.00
2022-08-11T11:36:17.101Z,5808.00
2022-08-11T11:37:17.097Z,5964.00
2022-08-11T11:38:17.059Z,6080.00
2022-08-11T11:39:17.075Z,6240.00
2022-08-11T11:40:17.023Z,6336.00
2022-08-11T11:41:17.008Z,6436.00
2022-08-11T11:42:16.994Z,6568.00
2022-08-11T11:43:16.971Z,6688.00
2022-08-11T11:44:16.958Z,6808.00
2022-08-11T11:45:24.104Z,6932.00
2022-08-11T11:46:16.923Z,7040.00
2022-08-11T11:47:16.899Z,7124.00
2022-08-11T11:48:16.884Z,7224.00
2022-08-11T11:49:17.520Z,7304.00
2022-08-11T11:50:16.844Z,7376.00
2022-08-11T11:51:16.829Z,7496.00
2022-08-11T11:52:16.815Z,7644.00
2022-08-11T11:53:16.796Z,7760.00
2022-08-11T11:54:16.771Z,7836.00
2022-08-11T11:55:16.779Z,7876.00
2022-08-11T11:56:16.741Z,7992.00
2022-08-11T11:57:16.726Z,8084.00
2022-08-11T11:58:18.620Z,8216.00
2022-08-11T11:59:16.690Z,8304.00
2022-08-11T12:00:16.678Z,8444.00
2022-08-11T12:01:16.655Z,8528.00
2022-08-11T12:02:16.637Z,8616.00
2022-08-11T12:03:16.705Z,8700.00
2022-08-11T12:04:16.603Z,8796.00
2022-08-11T12:05:16.587Z,8876.00
2022-08-11T12:06:16.573Z,8952.00
2022-08-11T12:07:16.556Z,9028.00
2022-08-11T12:08:16.553Z,9084.00
2022-08-11T12:09:16.520Z,9236.00
2022-08-11T12:10:16.504Z,9356.00
2022-08-11T12:11:16.489Z,9540.00
2022-08-11T12:12:16.470Z,9624.00
2022-08-11T12:13:16.456Z,9724.00
2022-08-11T12:14:16.436Z,9844.00
2022-08-11T12:15:16.438Z,9964.00
2022-08-11T12:16:33.990Z,10008.00
2022-08-11T12:17:16.388Z,10140.00
2022-08-11T12:18:16.368Z,10220.00
2022-08-11T12:19:16.353Z,10308.00
2022-08-11T12:20:33.415Z,10404.00
2022-08-11T12:21:16.324Z,10528.00
2022-08-11T12:22:16.308Z,10644.00
2022-08-11T12:23:16.292Z,10748.00
2022-08-11T12:24:16.273Z,10784.00
2022-08-11T12:25:16.258Z,10760.00
2022-08-11T12:26:26.771Z,10852.00
2022-08-11T12:27:17.622Z,11004.00
2022-08-11T12:28:16.208Z,11044.00
2022-08-11T12:29:16.197Z,11204.00
2022-08-11T12:30:16.174Z,11296.00
2022-08-11T12:31:16.163Z,11384.00
2022-08-11T12:32:16.141Z,11460.00
2022-08-11T12:33:16.128Z,11560.00
2022-08-11T12:34:16.112Z,11644.00
2022-08-11T12:35:16.099Z,11760.00
2022-08-11T12:36:16.085Z,11920.00
2022-08-11T12:37:16.073Z,11980.00
2022-08-11T12:38:16.048Z,12084.00
2022-08-11T12:39:24.336Z,12124.00
2022-08-11T12:40:49.706Z,12140.00